Time;durP1;ratioP1;P1;durP2;ratioP2;P2;SDS_P1;SDS_P2;PMS_P1;PMS_P2;Temp;Humidity;BMP_temperature;BMP_pressure;BME280_temperature;BME280_humidity;BME280_pressure;Samples;Min_cycle;Max_cycle;Signal;HPM_P1;HPM_P2
2023/12/04 00:01:19;;;;;;;24.92;19.13;;;;;;;-0.22;100.00;100402.59;5068146;28;20035;-78
2023/12/04 00:03:45;;;;;;;25.02;18.77;;;;;;;-0.22;100.00;100400.00;5070769;28;20025;-77
2023/12/04 00:06:11;;;;;;;26.77;18.83;;;;;;;-0.22;100.00;100406.03;5074074;28;20040;-74
2023/12/04 00:08:37;;;;;;;25.80;18.98;;;;;;;-0.37;100.00;100403.13;5075969;28;20025;-76
2023/12/04 00:11:04;;;;;;;35.20;19.90;;;;;;;-0.30;100.00;100397.69;5069338;28;20444;-78
2023/12/04 00:13:30;;;;;;;29.10;19.42;;;;;;;-0.33;100.00;100402.13;5077018;28;20025;-77
2023/12/04 00:15:55;;;;;;;27.42;19.67;;;;;;;-0.46;100.00;100407.72;5070838;28;20060;-78
2023/12/04 00:18:21;;;;;;;29.38;19.90;;;;;;;-0.56;100.00;100411.53;5075575;28;20039;-77
2023/12/04 00:20:47;;;;;;;27.10;19.50;;;;;;;-0.53;100.00;100411.41;5084208;28;20024;-77
2023/12/04 00:23:12;;;;;;;29.55;19.65;;;;;;;-0.45;100.00;100406.84;5076716;28;20108;-78
2023/12/04 00:25:38;;;;;;;33.35;20.80;;;;;;;-0.42;100.00;100404.16;5074657;28;20031;-75
2023/12/04 00:28:04;;;;;;;25.25;19.80;;;;;;;-0.46;100.00;100407.72;5064051;28;20033;-77
2023/12/04 00:30:29;;;;;;;28.80;19.45;;;;;;;-0.55;100.00;100407.22;5063790;28;20029;-77
2023/12/04 00:32:55;;;;;;;29.27;19.27;;;;;;;-0.59;100.00;100408.22;5062030;28;20051;-77
2023/12/04 00:35:20;;;;;;;28.35;19.20;;;;;;;-0.68;100.00;100406.78;5059646;28;20021;-74
2023/12/04 00:37:46;;;;;;;25.98;18.98;;;;;;;-0.82;100.00;100408.97;5064964;28;20033;-77
2023/12/04 00:40:12;;;;;;;25.80;18.95;;;;;;;-0.86;100.00;100409.97;5063059;28;20076;-76
2023/12/04 00:42:37;;;;;;;24.55;18.65;;;;;;;-1.02;100.00;100416.56;5065956;28;20025;-76
2023/12/04 00:45:04;;;;;;;26.48;19.60;;;;;;;-1.19;100.00;100421.44;5067243;28;20044;-78
2023/12/04 00:47:29;;;;;;;27.48;19.30;;;;;;;-1.32;100.00;100431.31;5068687;28;20021;-78
2023/12/04 00:49:55;;;;;;;24.98;19.95;;;;;;;-1.15;100.00;100417.84;5064129;28;20063;-76
2023/12/04 00:52:20;;;;;;;27.08;19.65;;;;;;;-1.12;100.00;100420.34;5067448;28;20032;-77
2023/12/04 00:54:46;;;;;;;25.90;18.88;;;;;;;-1.19;100.00;100426.59;5067898;28;20040;-76
2023/12/04 00:57:11;;;;;;;26.55;19.20;;;;;;;-1.29;100.00;100419.09;5065907;28;20021;-75
2023/12/04 00:59:37;;;;;;;25.88;18.88;;;;;;;-1.23;100.00;100418.06;5067969;28;20036;-77
2023/12/04 01:02:03;;;;;;;28.33;18.98;;;;;;;-1.27;100.00;100412.16;5068604;28;20041;-77
2023/12/04 01:04:31;;;;;;;23.83;17.52;;;;;;;-1.45;100.00;100402.34;5064498;28;20509;-76
2023/12/04 01:06:56;;;;;;;25.05;17.33;;;;;;;-1.38;100.00;100397.84;5066019;28;20400;-77
2023/12/04 01:09:24;;;;;;;22.52;16.88;;;;;;;-1.26;100.00;100395.72;5068091;28;20036;-77
2023/12/04 01:11:53;;;;;;;24.08;18.00;;;;;;;-1.20;100.00;100399.84;5065535;28;20385;-77
2023/12/04 01:14:19;;;;;;;24.75;18.23;;;;;;;-1.36;100.00;100391.75;5066059;28;20086;-76
2023/12/04 01:16:45;;;;;;;27.65;17.70;;;;;;;-1.45;100.00;100406.69;5065096;28;20441;-76
2023/12/04 01:19:11;;;;;;;26.45;19.13;;;;;;;-1.34;100.00;100402.03;5064927;28;20032;-77
2023/12/04 01:21:37;;;;;;;29.15;18.50;;;;;;;-1.20;100.00;100407.63;5060591;28;20104;-75
2023/12/04 01:24:02;;;;;;;27.30;18.70;;;;;;;-1.16;100.00;100405.78;5064407;28;20041;-77
2023/12/04 01:26:28;;;;;;;26.65;18.13;;;;;;;-1.09;100.00;100407.28;5065207;28;20084;-78
2023/12/04 01:28:54;;;;;;;28.63;19.10;;;;;;;-1.02;100.00;100406.19;5066831;28;20036;-76
2023/12/04 01:31:19;;;;;;;23.10;16.95;;;;;;;-0.99;100.00;100411.25;5063942;28;20111;-78
2023/12/04 01:33:45;;;;;;;25.55;18.02;;;;;;;-0.93;100.00;100416.25;5069007;28;20052;-78
2023/12/04 01:36:10;;;;;;;22.60;18.27;;;;;;;-0.89;100.00;100417.88;5063593;28;20036;-79
2023/12/04 01:38:37;;;;;;;21.92;17.33;;;;;;;-0.86;100.00;100422.94;5065459;28;20050;-77
2023/12/04 01:41:03;;;;;;;20.55;16.08;;;;;;;-0.84;100.00;100421.16;5066468;28;20059;-77
2023/12/04 01:43:29;;;;;;;19.98;16.52;;;;;;;-0.87;100.00;100422.06;5066141;28;20077;-77
2023/12/04 01:45:55;;;;;;;23.15;17.75;;;;;;;-0.91;100.00;100424.81;5065214;28;20024;-77
2023/12/04 01:48:21;;;;;;;22.20;17.08;;;;;;;-1.00;100.00;100417.38;5067793;28;20025;-76
2023/12/04 01:50:47;;;;;;;21.65;17.23;;;;;;;-1.12;100.00;100417.75;5062372;28;20083;-78
2023/12/04 01:53:13;;;;;;;22.42;17.80;;;;;;;-1.17;100.00;100411.84;5065589;28;20065;-78
2023/12/04 01:55:40;;;;;;;20.40;17.05;;;;;;;-1.26;100.00;100410.41;5062992;28;20043;-78
2023/12/04 01:58:07;;;;;;;20.17;17.02;;;;;;;-1.27;100.00;100408.72;5061824;28;20078;-77
2023/12/04 02:00:32;;;;;;;19.92;16.70;;;;;;;-1.20;100.00;100422.31;5063041;28;20672;-77
2023/12/04 02:02:59;;;;;;;19.50;17.40;;;;;;;-1.14;100.00;100422.13;5061077;28;20040;-77
2023/12/04 02:05:27;;;;;;;20.83;17.92;;;;;;;-1.29;100.00;100429.47;5057810;28;20471;-77
2023/12/04 02:07:53;;;;;;;20.80;18.60;;;;;;;-1.14;100.00;100422.97;5061673;28;20111;-77
2023/12/04 02:10:19;;;;;;;23.05;18.92;;;;;;;-1.10;100.00;100423.72;5060314;28;20384;-78
2023/12/04 02:12:45;;;;;;;22.85;18.33;;;;;;;-1.12;100.00;100425.53;5062333;28;20967;-78
2023/12/04 02:15:11;;;;;;;24.05;18.23;;;;;;;-1.40;100.00;100426.34;5063224;28;20067;-78
2023/12/04 02:17:38;;;;;;;22.63;17.60;;;;;;;-1.38;100.00;100427.19;5060843;28;20020;-77
2023/12/04 02:20:05;;;;;;;23.30;18.25;;;;;;;-1.48;100.00;100427.50;5061555;28;20040;-78
2023/12/04 02:22:31;;;;;;;24.90;18.27;;;;;;;-1.48;100.00;100423.19;5058838;28;20033;-77
2023/12/04 02:24:59;;;;;;;27.75;18.85;;;;;;;-1.37;100.00;100428.88;5061214;28;20034;-79
2023/12/04 02:27:37;;;;;;;26.38;18.08;;;;;;;-1.18;100.00;100420.53;5058581;28;20032;-77
2023/12/04 02:30:06;;;;;;;25.40;17.83;;;;;;;-1.42;100.00;100423.00;5060514;28;20063;-77
2023/12/04 02:32:35;;;;;;;23.42;17.67;;;;;;;-1.29;100.00;100413.94;5057981;28;20111;-78
2023/12/04 02:35:04;;;;;;;26.30;17.73;;;;;;;-1.12;100.00;100412.56;5056503;28;20052;-77
2023/12/04 02:37:31;;;;;;;23.95;17.30;;;;;;;-1.12;100.00;100421.16;5059968;28;20122;-75
2023/12/04 02:39:57;;;;;;;20.63;16.33;;;;;;;-1.29;100.00;100416.53;5061012;28;20048;-78
2023/12/04 02:42:24;;;;;;;25.98;18.75;;;;;;;-1.41;100.00;100414.31;5061346;28;20039;-77
2023/12/04 02:44:51;;;;;;;27.73;18.98;;;;;;;-1.34;100.00;100414.97;5057198;28;20045;-77
2023/12/04 02:47:17;;;;;;;25.20;18.48;;;;;;;-1.25;100.00;100407.78;5061601;28;20474;-77
2023/12/04 02:49:43;;;;;;;22.42;17.88;;;;;;;-1.32;100.00;100403.69;5059449;28;20405;-76
2023/12/04 02:52:08;;;;;;;23.98;18.40;;;;;;;-1.40;100.00;100400.47;5058360;28;20025;-76
2023/12/04 02:54:34;;;;;;;25.50;18.77;;;;;;;-1.45;100.00;100402.34;5064389;28;20508;-76
2023/12/04 02:57:00;;;;;;;28.88;20.38;;;;;;;-1.37;100.00;100390.03;5059624;28;20036;-74
2023/12/04 02:59:25;;;;;;;29.50;20.17;;;;;;;-1.43;100.00;100387.63;5060644;28;20047;-76
2023/12/04 03:01:51;;;;;;;26.13;19.45;;;;;;;-1.48;100.00;100401.63;5060887;28;20040;-76
2023/12/04 03:04:16;;;;;;;27.98;19.13;;;;;;;-1.56;100.00;100388.91;5057832;28;20070;-76
2023/12/04 03:06:42;;;;;;;29.95;20.08;;;;;;;-1.42;100.00;100380.72;5058671;28;20091;-75
2023/12/04 03:09:08;;;;;;;30.63;21.08;;;;;;;-1.27;100.00;100380.22;5062232;28;20474;-76
2023/12/04 03:11:33;;;;;;;28.55;20.88;;;;;;;-1.37;100.00;100389.19;5058949;28;20079;-77
2023/12/04 03:14:01;;;;;;;29.77;21.83;;;;;;;-1.31;100.00;100391.59;5062241;28;20032;-77
2023/12/04 03:16:26;;;;;;;28.17;20.65;;;;;;;-1.15;100.00;100384.16;5056603;28;20078;-77
2023/12/04 03:18:52;;;;;;;29.65;20.35;;;;;;;-1.14;100.00;100370.31;5058334;28;20025;-77
2023/12/04 03:21:17;;;;;;;27.92;20.65;;;;;;;-1.00;100.00;100362.97;5061151;28;20024;-77
2023/12/04 03:23:44;;;;;;;25.45;19.73;;;;;;;-0.95;100.00;100376.59;5058681;28;20036;-78
2023/12/04 03:26:09;;;;;;;26.88;19.60;;;;;;;-0.82;100.00;100367.50;5060446;28;20040;-77
2023/12/04 03:28:35;;;;;;;26.38;18.73;;;;;;;-0.79;100.00;100370.00;5061565;28;20063;-78
2023/12/04 03:31:02;;;;;;;25.20;18.80;;;;;;;-0.95;100.00;100371.44;5059507;28;20064;-78
2023/12/04 03:33:27;;;;;;;24.73;19.48;;;;;;;-0.85;100.00;100358.09;5058939;28;20025;-77
2023/12/04 03:35:53;;;;;;;26.30;19.33;;;;;;;-0.82;100.00;100364.09;5058179;28;20029;-77
2023/12/04 03:38:18;;;;;;;27.05;19.40;;;;;;;-0.83;100.00;100371.03;5059545;28;20025;-77
2023/12/04 03:40:44;;;;;;;24.63;19.25;;;;;;;-1.00;100.00;100375.91;5060640;28;20445;-77
2023/12/04 03:43:10;;;;;;;28.83;19.08;;;;;;;-0.86;100.00;100371.09;5061401;28;20048;-78
2023/12/04 03:45:35;;;;;;;25.83;20.30;;;;;;;-0.76;100.00;100367.28;5060867;28;20031;-77
2023/12/04 03:48:01;;;;;;;26.48;18.17;;;;;;;-0.72;100.00;100368.91;5061972;28;20025;-78
2023/12/04 03:50:26;;;;;;;24.75;19.73;;;;;;;-0.70;100.00;100377.47;5064549;28;20033;-77
2023/12/04 03:52:52;;;;;;;26.38;20.15;;;;;;;-0.65;100.00;100367.81;5057605;28;20052;-78
2023/12/04 03:55:19;;;;;;;28.10;19.25;;;;;;;-0.65;100.00;100367.81;5061981;28;20035;-77
2023/12/04 03:57:45;;;;;;;26.75;19.05;;;;;;;-0.94;100.00;100367.91;5060123;28;21575;-79
2023/12/04 04:00:11;;;;;;;25.02;19.33;;;;;;;-0.96;100.00;100369.72;5068295;28;20491;-77
2023/12/04 04:02:43;;;;;;;26.67;19.30;;;;;;;-0.84;100.00;100369.31;5064724;28;20040;-77
2023/12/04 04:05:09;;;;;;;28.67;19.88;;;;;;;-0.82;100.00;100362.31;5065507;28;20722;-77
2023/12/04 04:07:35;;;;;;;26.67;18.92;;;;;;;-0.68;100.00;100367.91;5067220;28;20033;-78
2023/12/04 04:10:00;;;;;;;25.30;18.98;;;;;;;-0.77;100.00;100376.00;5069412;28;20032;-77
2023/12/04 04:12:29;;;;;;;24.98;18.95;;;;;;;-0.68;100.00;100380.00;5065811;28;20033;-76
2023/12/04 04:14:55;;;;;;;25.35;18.52;;;;;;;-0.57;100.00;100383.06;5068179;28;20029;-77
2023/12/04 04:17:20;;;;;;;27.85;19.10;;;;;;;-0.50;100.00;100369.84;5067375;28;20025;-77
2023/12/04 04:19:46;;;;;;;22.92;18.00;;;;;;;-0.59;100.00;100382.31;5067623;28;20033;-78
2023/12/04 04:22:12;;;;;;;24.35;18.25;;;;;;;-0.68;100.00;100383.44;5071733;28;20158;-75
2023/12/04 04:24:37;;;;;;;27.65;19.73;;;;;;;-0.51;100.00;100390.63;5067286;28;20041;-78
2023/12/04 04:27:03;;;;;;;25.30;17.88;;;;;;;-0.47;100.00;100380.09;5065280;28;20029;-77
2023/12/04 04:29:29;;;;;;;25.05;17.75;;;;;;;-0.48;100.00;100378.44;5067853;28;20028;-78
2023/12/04 04:31:54;;;;;;;25.25;17.88;;;;;;;-0.52;100.00;100387.19;5064619;28;20028;-78
2023/12/04 04:34:21;;;;;;;23.27;17.75;;;;;;;-0.67;100.00;100379.97;5066268;28;20078;-78
2023/12/04 04:36:48;;;;;;;22.75;17.85;;;;;;;-0.52;100.00;100378.56;5065818;28;20048;-78
2023/12/04 04:39:14;;;;;;;24.23;18.60;;;;;;;-0.41;100.00;100366.91;5066018;28;20338;-78
2023/12/04 04:41:40;;;;;;;24.45;18.13;;;;;;;-0.33;100.00;100365.81;5064515;28;20032;-77
2023/12/04 04:44:06;;;;;;;27.88;17.25;;;;;;;-0.33;100.00;100365.81;5064159;28;20449;-78
2023/12/04 04:46:32;;;;;;;22.25;16.83;;;;;;;-0.42;100.00;100361.81;5064674;28;20029;-77
2023/12/04 04:48:57;;;;;;;26.95;18.33;;;;;;;-0.36;100.00;100366.78;5070447;28;20471;-77
2023/12/04 04:51:23;;;;;;;21.92;16.98;;;;;;;-0.30;100.00;100365.72;5064545;28;20142;-77
2023/12/04 04:53:49;;;;;;;23.60;18.38;;;;;;;-0.20;100.00;100367.06;5065392;28;20033;-78
2023/12/04 04:56:15;;;;;;;23.77;17.90;;;;;;;-0.14;100.00;100361.66;5068482;28;20339;-76
2023/12/04 04:58:41;;;;;;;24.35;18.15;;;;;;;-0.10;100.00;100358.03;5069076;28;20485;-77
2023/12/04 05:01:07;;;;;;;22.30;18.05;;;;;;;-0.10;100.00;100353.69;5070009;28;20025;-77
2023/12/04 05:03:33;;;;;;;24.27;17.92;;;;;;;-0.12;100.00;100349.50;5068356;28;20040;-78
2023/12/04 05:06:43;;;;;;;22.88;17.88;;;;;;;-0.13;100.00;100352.97;5062389;28;20037;-76
2023/12/04 05:09:09;;;;;;;25.48;17.98;;;;;;;-0.15;100.00;100349.59;5067847;28;20040;-78
2023/12/04 05:11:35;;;;;;;25.40;17.33;;;;;;;-0.13;100.00;100342.59;5071118;28;20020;-78
2023/12/04 05:14:00;;;;;;;23.58;18.50;;;;;;;-0.18;100.00;100336.75;5061781;28;20118;-78
2023/12/04 05:16:26;;;;;;;24.95;17.75;;;;;;;-0.16;100.00;100333.19;5061415;28;20108;-78
2023/12/04 05:18:51;;;;;;;26.30;17.98;;;;;;;-0.15;100.00;100334.03;5062732;28;20025;-77
2023/12/04 05:21:17;;;;;;;22.25;17.42;;;;;;;-0.14;100.00;100330.53;5067317;28;20025;-76
2023/12/04 05:23:44;;;;;;;23.70;18.00;;;;;;;-0.14;100.00;100330.53;5057290;28;20063;-77
2023/12/04 05:26:10;;;;;;;23.23;18.75;;;;;;;-0.12;100.00;100334.75;5058180;28;20036;-78
2023/12/04 05:28:35;;;;;;;27.88;18.52;;;;;;;-0.09;100.00;100324.28;5064995;28;20021;-78
2023/12/04 05:31:01;;;;;;;23.30;17.85;;;;;;;-0.08;100.00;100325.97;5060940;28;20076;-79
2023/12/04 05:33:27;;;;;;;26.67;18.35;;;;;;;-0.11;100.00;100320.88;5063692;28;20048;-78
2023/12/04 05:35:53;;;;;;;26.35;18.77;;;;;;;-0.12;100.00;100319.19;5058503;28;20066;-78
2023/12/04 05:38:18;;;;;;;22.92;17.15;;;;;;;-0.10;100.00;100321.72;5059222;28;20041;-78
2023/12/04 05:40:44;;;;;;;26.80;18.38;;;;;;;-0.30;100.00;100319.88;5063426;28;20040;-78
2023/12/04 05:43:10;;;;;;;23.55;17.98;;;;;;;-0.19;100.00;100316.88;5053912;28;20055;-79
2023/12/04 05:45:36;;;;;;;23.17;18.10;;;;;;;-0.22;100.00;100322.19;5060314;28;20029;-79
2023/12/04 05:48:02;;;;;;;24.20;17.38;;;;;;;-0.21;100.00;100339.44;5064291;28;20356;-79
2023/12/04 05:50:28;;;;;;;21.58;17.48;;;;;;;-0.21;100.00;100344.63;5067342;28;20371;-79
2023/12/04 05:52:53;;;;;;;24.63;16.75;;;;;;;-0.20;100.00;100341.13;5066627;28;20098;-77
2023/12/04 05:55:20;;;;;;;23.23;18.63;;;;;;;-0.28;100.00;100337.97;5068317;28;20111;-78
2023/12/04 05:57:45;;;;;;;22.95;17.55;;;;;;;-0.32;100.00;100345.03;5066316;28;20127;-81
2023/12/04 06:00:12;;;;;;;28.08;19.05;;;;;;;-0.38;100.00;100346.97;5068274;28;20025;-80
2023/12/04 06:02:45;;;;;;;25.33;18.27;;;;;;;-0.33;100.00;100353.69;5065427;28;20116;-79
2023/12/04 06:05:14;;;;;;;27.95;19.17;;;;;;;-0.28;100.00;100358.72;5066099;28;20063;-76
2023/12/04 06:07:41;;;;;;;25.23;18.92;;;;;;;-0.35;100.00;100352.06;5058474;28;20528;-80
2023/12/04 06:10:08;;;;;;;23.65;18.25;;;;;;;-0.29;100.00;100346.63;5062837;28;20426;-75
2023/12/04 06:12:34;;;;;;;26.80;17.95;;;;;;;-0.39;100.00;100342.69;5064441;28;20045;-75
2023/12/04 06:15:00;;;;;;;23.35;17.75;;;;;;;-0.49;100.00;100345.63;5065590;28;20033;-75
2023/12/04 06:17:27;;;;;;;28.27;18.65;;;;;;;-0.46;100.00;100340.31;5042082;28;20112;-72
2023/12/04 06:19:53;;;;;;;26.88;17.63;;;;;;;-0.41;100.00;100340.16;5060752;28;20028;-74
2023/12/04 06:22:21;;;;;;;26.90;19.08;;;;;;;-0.38;100.00;100339.19;5062651;28;20051;-74
2023/12/04 06:24:47;;;;;;;27.95;17.70;;;;;;;-0.38;100.00;100336.59;5062419;28;20393;-73
2023/12/04 06:27:20;;;;;;;27.75;19.40;;;;;;;-0.33;100.00;100334.69;5055706;28;20028;-74
2023/12/04 06:29:47;;;;;;;26.30;18.02;;;;;;;-0.23;100.00;100338.63;5058620;28;20372;-73
2023/12/04 06:32:13;;;;;;;24.40;18.58;;;;;;;-0.13;100.00;100340.00;5066558;28;20047;-75
2023/12/04 06:34:39;;;;;;;22.83;18.20;;;;;;;-0.06;100.00;100344.06;5061586;28;20033;-74
2023/12/04 06:37:13;;;;;;;29.05;20.00;;;;;;;-0.01;100.00;100342.16;5063423;28;20541;-74
2023/12/04 06:39:42;;;;;;;25.77;18.48;;;;;;;0.01;100.00;100348.09;5051621;28;20389;-76
2023/12/04 06:42:08;;;;;;;25.60;18.85;;;;;;;-0.01;100.00;100353.38;5063059;28;20033;-77
2023/12/04 06:44:34;;;;;;;23.65;18.55;;;;;;;-0.20;100.00;100354.09;5066463;28;20411;-77
2023/12/04 06:47:01;;;;;;;26.85;18.52;;;;;;;-0.23;100.00;100346.41;5064210;28;20043;-75
2023/12/04 06:49:32;;;;;;;25.00;18.48;;;;;;;-0.12;100.00;100354.69;5066113;28;20429;-77
2023/12/04 06:51:58;;;;;;;;;;;;;;;-0.02;100.00;100345.66;5065675;28;20029;-75
2023/12/04 06:54:24;;;;;;;23.13;17.85;;;;;;;0.02;100.00;100357.59;5063072;28;20015;-77
2023/12/04 06:56:50;;;;;;;26.42;18.80;;;;;;;0.02;100.00;100357.59;5060787;28;20037;-77
2023/12/04 06:59:17;;;;;;;23.05;18.02;;;;;;;0.01;100.00;100353.31;5060542;28;20066;-76
2023/12/04 07:01:42;;;;;;;24.80;17.98;;;;;;;-0.04;100.00;100348.28;5058328;28;20033;-77
2023/12/04 07:04:09;;;;;;;25.42;18.77;;;;;;;-0.06;100.00;100354.44;5062240;28;20123;-77
2023/12/04 07:06:39;;;;;;;27.10;20.13;;;;;;;-0.14;100.00;100351.28;5060354;28;20183;-76
2023/12/04 07:09:07;;;;;;;26.25;19.20;;;;;;;-0.23;100.00;100351.59;5060763;28;20047;-78
2023/12/04 07:11:33;;;;;;;24.60;18.35;;;;;;;-0.16;100.00;100342.69;5060768;28;20029;-77
2023/12/04 07:13:59;;;;;;;25.92;19.15;;;;;;;-0.13;100.00;100333.06;5058016;28;20039;-77
2023/12/04 07:16:24;;;;;;;25.90;19.27;;;;;;;-0.13;100.00;100338.25;5057390;28;20039;-77
2023/12/04 07:18:50;;;;;;;26.95;18.35;;;;;;;-0.14;100.00;100338.31;5056563;28;20036;-77
2023/12/04 07:21:16;;;;;;;23.67;18.38;;;;;;;-0.05;100.00;100335.38;5057991;28;20032;-77
2023/12/04 07:23:41;;;;;;;21.02;16.90;;;;;;;0.01;100.00;100324.75;5059718;28;20043;-76
2023/12/04 07:26:07;;;;;;;24.88;17.55;;;;;;;0.09;100.00;100327.91;5059352;28;20040;-77
2023/12/04 07:28:33;;;;;;;25.48;19.00;;;;;;;0.18;100.00;100322.38;5062763;28;20029;-76
2023/12/04 07:31:03;;;;;;;26.88;19.05;;;;;;;0.27;100.00;100316.84;5058129;28;20086;-76
2023/12/04 07:33:29;;;;;;;24.02;18.20;;;;;;;0.35;100.00;100309.56;5060011;28;20025;-77
2023/12/04 07:35:54;;;;;;;24.90;18.50;;;;;;;0.43;100.00;100300.63;5058921;28;20036;-77
2023/12/04 07:38:20;;;;;;;31.55;19.85;;;;;;;0.46;100.00;100295.34;5055826;28;20055;-77
2023/12/04 07:40:46;;;;;;;27.27;20.55;;;;;;;0.50;100.00;100302.09;5063529;28;20025;-77
2023/12/04 07:43:12;;;;;;;31.63;22.75;;;;;;;0.54;100.00;100304.50;5064283;28;20040;-77
2023/12/04 07:45:38;;;;;;;41.10;28.27;;;;;;;0.59;100.00;100299.97;5062821;28;20033;-77
2023/12/04 07:48:04;;;;;;;36.90;26.30;;;;;;;0.60;100.00;100309.44;5065496;28;20021;-76
2023/12/04 07:50:29;;;;;;;27.75;19.85;;;;;;;0.55;100.00;100316.59;5061532;28;20032;-77
2023/12/04 07:52:55;;;;;;;27.67;19.83;;;;;;;0.66;100.00;100321.34;5054466;28;20082;-77
2023/12/04 07:55:21;;;;;;;29.83;20.38;;;;;;;0.67;100.00;100304.84;5062597;28;20039;-77
2023/12/04 07:57:47;;;;;;;47.10;21.52;;;;;;;0.71;100.00;100301.22;5061268;28;20059;-77
2023/12/04 08:00:14;;;;;;;29.48;20.55;;;;;;;0.78;100.00;100297.47;5059672;28;20024;-76
2023/12/04 08:02:40;;;;;;;26.25;19.20;;;;;;;0.86;100.00;100300.59;5057681;28;20033;-76
2023/12/04 08:05:06;;;;;;;20.90;17.40;;;;;;;0.89;100.00;100300.44;5061267;28;20044;-77
2023/12/04 08:07:32;;;;;;;27.42;18.67;;;;;;;0.97;100.00;100280.19;5061343;28;20044;-76
2023/12/04 08:09:57;;;;;;;29.40;18.48;;;;;;;1.02;100.00;100280.84;5063970;28;20025;-77
2023/12/04 08:12:23;;;;;;;27.55;17.08;;;;;;;0.99;100.00;100288.78;5064977;28;20033;-76
2023/12/04 08:14:49;;;;;;;23.88;17.95;;;;;;;0.80;100.00;100285.25;5060736;28;20037;-79
2023/12/04 08:17:14;;;;;;;20.80;16.25;;;;;;;0.87;100.00;100283.25;5064196;28;20079;-78
2023/12/04 08:19:40;;;;;;;27.95;17.75;;;;;;;1.07;100.00;100278.03;5058196;28;20060;-78
2023/12/04 08:22:06;;;;;;;23.30;17.73;;;;;;;1.16;100.00;100273.31;5061440;28;20036;-78
2023/12/04 08:24:31;;;;;;;28.48;18.35;;;;;;;1.19;100.00;100278.38;5064570;28;20040;-78
2023/12/04 08:26:57;;;;;;;24.88;18.48;;;;;;;1.15;100.00;100282.03;5058874;28;20045;-76
2023/12/04 08:29:22;;;;;;;23.70;18.25;;;;;;;1.02;100.00;100296.44;5060811;28;20024;-77
2023/12/04 08:31:48;;;;;;;24.55;18.15;;;;;;;0.96;100.00;100301.91;5061451;28;20056;-75
2023/12/04 08:34:14;;;;;;;24.25;18.77;;;;;;;0.85;100.00;100301.50;5060736;28;20040;-77
2023/12/04 08:36:39;;;;;;;29.42;18.58;;;;;;;0.85;100.00;100309.28;5058570;28;20030;-75
2023/12/04 08:39:05;;;;;;;23.67;17.58;;;;;;;0.73;100.00;100307.19;5060873;28;20087;-76
2023/12/04 08:41:30;;;;;;;27.52;19.20;;;;;;;0.72;100.00;100314.16;5058935;28;20021;-76
2023/12/04 08:43:56;;;;;;;24.98;18.90;;;;;;;0.89;100.00;100310.84;5055890;28;20128;-76
2023/12/04 08:46:21;;;;;;;26.75;20.10;;;;;;;0.92;100.00;100302.94;5059855;28;20024;-75
2023/12/04 08:48:47;;;;;;;29.80;20.60;;;;;;;0.91;100.00;100314.25;5063500;28;20469;-75
2023/12/04 08:51:17;;;;;;;32.90;21.02;;;;;;;0.96;100.00;100312.28;5060813;28;20033;-75
2023/12/04 08:53:43;;;;;;;43.43;26.43;;;;;;;1.02;100.00;100306.84;5054945;28;20029;-76
2023/12/04 08:56:09;;;;;;;35.78;22.27;;;;;;;1.03;100.00;100308.53;5060727;28;20082;-76
2023/12/04 08:58:35;;;;;;;33.67;23.00;;;;;;;0.93;100.00;100306.38;5060262;28;21471;-75
2023/12/04 09:01:02;;;;;;;37.63;24.63;;;;;;;0.85;100.00;100303.25;5060318;28;20041;-75
2023/12/04 09:03:27;;;;;;;39.80;24.90;;;;;;;0.87;100.00;100297.09;5059950;28;20054;-75
2023/12/04 09:05:55;;;;;;;35.38;22.55;;;;;;;0.94;100.00;100300.28;5065069;28;20119;-75
2023/12/04 09:08:23;;;;;;;29.13;20.85;;;;;;;0.87;100.00;100307.50;5063193;28;20082;-76
2023/12/04 09:10:49;;;;;;;27.48;20.58;;;;;;;0.87;100.00;100320.47;5064691;28;20017;-76
2023/12/04 09:13:15;;;;;;;30.08;21.08;;;;;;;0.82;100.00;100322.44;5057758;28;20040;-75
2023/12/04 09:15:41;;;;;;;28.00;21.23;;;;;;;0.88;100.00;100329.97;5064849;28;20085;-75
2023/12/04 09:18:06;;;;;;;31.73;23.17;;;;;;;0.87;100.00;100332.63;5062499;28;20115;-76
2023/12/04 09:20:32;;;;;;;31.30;23.20;;;;;;;1.07;100.00;100325.69;5064953;28;20469;-75
2023/12/04 09:22:57;;;;;;;28.30;21.35;;;;;;;1.26;100.00;100324.91;5065472;28;20032;-75
2023/12/04 09:25:23;;;;;;;30.75;21.08;;;;;;;1.30;100.00;100321.28;5059714;28;20024;-75
2023/12/04 09:27:48;;;;;;;28.35;21.30;;;;;;;1.37;100.00;100325.28;5064631;28;20028;-75
2023/12/04 09:30:14;;;;;;;30.40;20.80;;;;;;;1.51;100.00;100321.19;5050140;28;20029;-75
2023/12/04 09:32:40;;;;;;;28.70;22.60;;;;;;;1.64;100.00;100321.50;5067891;28;20032;-75
2023/12/04 09:35:06;;;;;;;29.27;21.50;;;;;;;1.76;100.00;100314.91;5066758;28;20037;-76
2023/12/04 09:37:32;;;;;;;33.50;22.20;;;;;;;1.89;100.00;100314.25;5068418;28;20422;-75
2023/12/04 09:39:57;;;;;;;27.55;20.17;;;;;;;1.97;100.00;100317.38;5065555;28;20074;-76
2023/12/04 09:42:23;;;;;;;28.40;21.60;;;;;;;1.96;100.00;100313.06;5066921;28;20040;-76
2023/12/04 09:44:50;;;;;;;25.75;20.83;;;;;;;1.96;100.00;100302.66;5067503;28;20039;-75
2023/12/04 09:47:18;;;;;;;26.00;20.38;;;;;;;1.97;100.00;100290.47;5057692;28;20029;-75
2023/12/04 09:49:45;;;;;;;28.70;21.15;;;;;;;2.01;100.00;100303.28;5053560;28;20027;-76
2023/12/04 09:52:11;;;;;;;28.58;19.65;;;;;;;2.11;100.00;100295.06;5045777;28;20536;-75
2023/12/04 09:54:37;;;;;;;28.33;19.67;;;;;;;2.16;100.00;100293.09;5056036;28;20397;-76
2023/12/04 09:57:04;;;;;;;25.92;20.50;;;;;;;2.24;100.00;100291.78;5061919;28;20032;-76
2023/12/04 09:59:31;;;;;;;24.20;19.75;;;;;;;2.29;100.00;100292.44;5055977;28;20037;-75
2023/12/04 10:01:57;;;;;;;23.05;19.02;;;;;;;2.37;100.00;100297.25;5059847;28;20099;-75
2023/12/04 10:04:25;;;;;;;27.80;18.95;;;;;;;2.44;100.00;100293.47;5061777;28;20037;-75
2023/12/04 10:06:52;;;;;;;29.10;18.95;;;;;;;2.50;100.00;100290.56;5057896;28;20041;-76
2023/12/04 10:09:19;;;;;;;23.38;18.60;;;;;;;2.48;100.00;100284.56;5057757;28;20056;-75
2023/12/04 10:11:47;;;;;;;25.50;18.55;;;;;;;2.49;100.00;100281.06;5065433;28;20108;-75
2023/12/04 10:14:20;;;;;;;26.80;18.70;;;;;;;2.50;100.00;100277.53;5054831;28;20044;-75
2023/12/04 10:16:46;;;;;;;26.38;20.23;;;;;;;2.55;100.00;100275.53;5059586;28;20039;-75
2023/12/04 10:19:18;;;;;;;28.05;19.70;;;;;;;2.55;100.00;100270.34;5062557;28;20045;-76
2023/12/04 10:21:46;;;;;;;26.63;19.08;;;;;;;2.58;100.00;100265.00;5059981;28;20028;-74
2023/12/04 10:24:12;;;;;;;26.13;20.08;;;;;;;2.62;100.00;100258.69;5056498;28;20088;-75
2023/12/04 10:26:50;;;;;;;23.95;18.60;;;;;;;2.65;100.00;100255.91;5056813;28;20033;-75
2023/12/04 10:29:16;;;;;;;24.30;17.83;;;;;;;2.65;100.00;100250.72;5053521;28;20033;-75
2023/12/04 10:31:41;;;;;;;26.63;18.35;;;;;;;2.60;100.00;100242.28;5059222;28;20036;-74
2023/12/04 10:34:09;;;;;;;25.05;18.33;;;;;;;2.64;100.00;100238.63;5061343;28;20036;-77
2023/12/04 10:36:36;;;;;;;21.85;17.48;;;;;;;2.65;100.00;100229.88;5061975;28;20449;-75
2023/12/04 10:39:04;;;;;;;29.30;19.20;;;;;;;2.72;100.00;100236.47;5059791;28;20036;-74
2023/12/04 10:41:31;;;;;;;29.73;20.08;;;;;;;2.79;100.00;100224.81;5061840;28;20029;-74
2023/12/04 10:43:57;;;;;;;27.58;19.52;;;;;;;2.86;100.00;100213.16;5059777;28;20024;-76
2023/12/04 10:46:27;;;;;;;28.27;19.98;;;;;;;2.88;100.00;100213.94;5056670;28;20203;-75
2023/12/04 10:48:52;;;;;;;28.55;19.92;;;;;;;2.91;100.00;100215.53;5058884;28;20090;-75
2023/12/04 10:51:19;;;;;;;28.20;20.40;;;;;;;2.95;100.00;100211.00;5055848;28;20029;-75
2023/12/04 10:53:45;;;;;;;32.50;20.15;;;;;;;2.97;100.00;100207.41;5052503;28;20035;-76
2023/12/04 10:56:18;;;;;;;23.20;18.63;;;;;;;2.99;100.00;100196.91;5053460;28;20021;-75
2023/12/04 10:58:48;;;;;;;27.98;20.27;;;;;;;3.00;100.00;100189.00;5051886;28;20083;-76
2023/12/04 11:01:14;;;;;;;25.10;18.48;;;;;;;3.02;100.00;100183.69;5055087;28;20554;-75